Time,TemperatureF,DewpointF,PressureIn,WindDirection,WindDirectionDegrees,WindSpeedMPH,WindSpeedGustMPH,Humidity,HourlyPrecipIn,Conditions,Clouds,dailyrainin,SoftwareType,DateUTC
2013-01-06 11:11:00,80.0,61.0,-100.00,SW,227,1.0,8.0,52,0.00,,,0.00,,2013-01-06 21:11:00,
2013-01-06 11:33:00,80.0,61.0,-100.00,SW,227,1.0,8.0,52,0.00,,,0.00,,2013-01-06 21:33:00,
2013-01-06 11:43:00,80.0,61.0,-100.00,SW,227,1.0,8.0,52,0.00,,,0.00,,2013-01-06 21:43:00,
2013-01-06 11:53:00,80.0,61.0,-100.00,SW,227,1.0,8.0,52,0.00,,,0.00,,2013-01-06 21:53:00,
2013-01-06 12:02:00,80.0,61.0,-100.00,SW,227,1.0,8.0,52,0.00,,,0.00,,2013-01-06 22:02:00,
2013-01-06 12:11:00,78.0,59.0,-100.00,SW,217,3.0,9.0,52,0.00,,,0.00,,2013-01-06 22:11:00,
2013-01-06 12:33:00,78.0,59.0,-100.00,SW,217,3.0,9.0,52,0.00,,,0.00,,2013-01-06 22:33:00,
2013-01-06 12:43:00,78.0,59.0,-100.00,SW,217,3.0,9.0,52,0.00,,,0.00,,2013-01-06 22:43:00,
2013-01-06 12:52:00,78.0,59.0,-100.00,SW,217,3.0,9.0,52,0.00,,,0.00,,2013-01-06 22:52:00,
2013-01-06 13:02:00,78.0,59.0,-100.00,SW,217,3.0,9.0,52,0.00,,,0.00,,2013-01-06 23:02:00,
2013-01-06 13:11:00,78.0,61.0,-100.00,WSW,253,4.0,9.0,55,0.00,,,0.00,,2013-01-06 23:11:00,
2013-01-06 13:33:00,78.0,61.0,-100.00,WSW,253,4.0,9.0,55,0.00,,,0.00,,2013-01-06 23:33:00,
2013-01-06 13:43:00,78.0,61.0,-100.00,WSW,253,4.0,9.0,55,0.00,,,0.00,,2013-01-06 23:43:00,
2013-01-06 13:53:00,78.0,61.0,-100.00,WSW,253,4.0,9.0,55,0.00,,,0.00,,2013-01-06 23:53:00,
2013-01-06 14:02:00,78.0,61.0,-100.00,WSW,253,4.0,9.0,55,0.00,,,0.00,,2013-01-07 00:02:00,
2013-01-06 14:11:00,75.0,64.0,-100.00,SSW,198,3.0,8.0,69,0.00,,,0.00,,2013-01-07 00:11:00,
2013-01-06 14:33:00,75.0,64.0,-100.00,SSW,198,3.0,8.0,69,0.00,,,0.00,,2013-01-07 00:33:00,
2013-01-06 14:43:00,75.0,64.0,-100.00,SSW,198,3.0,8.0,69,0.00,,,0.00,,2013-01-07 00:43:00,
2013-01-06 14:53:00,75.0,64.0,-100.00,SSW,198,3.0,8.0,69,0.00,,,0.00,,2013-01-07 00:53:00,
2013-01-06 15:02:00,75.0,64.0,-100.00,SSW,198,3.0,8.0,69,0.00,,,0.00,,2013-01-07 01:02:00,
2013-01-06 15:11:00,77.0,63.0,-100.00,WSW,240,1.0,7.0,62,0.00,,,0.00,,2013-01-07 01:11:00,
2013-01-06 15:43:00,77.0,63.0,-100.00,WSW,240,1.0,7.0,62,0.00,,,0.00,,2013-01-07 01:43:00,
2013-01-06 15:53:00,77.0,63.0,-100.00,WSW,240,1.0,7.0,62,0.00,,,0.00,,2013-01-07 01:53:00,
2013-01-06 16:02:00,77.0,63.0,-100.00,WSW,240,1.0,7.0,62,0.00,,,0.00,,2013-01-07 02:02:00,
2013-01-06 16:11:00,70.0,64.0,-100.00,NE,52,0.0,5.0,82,0.04,,,0.04,,2013-01-07 02:11:00,
2013-01-06 16:43:00,70.0,64.0,-100.00,NE,52,0.0,5.0,82,0.04,,,0.04,,2013-01-07 02:43:00,
2013-01-06 16:53:00,70.0,64.0,-100.00,NE,52,0.0,5.0,82,0.04,,,0.04,,2013-01-07 02:53:00,
2013-01-06 17:02:00,70.0,64.0,-100.00,NE,52,0.0,5.0,82,0.04,,,0.04,,2013-01-07 03:02:00,
2013-01-06 17:11:00,74.0,62.0,-100.00,East,88,3.0,11.0,66,0.00,,,0.04,,2013-01-07 03:11:00,
2013-01-06 17:33:00,74.0,62.0,-100.00,East,88,3.0,11.0,66,0.00,,,0.04,,2013-01-07 03:33:00,
2013-01-06 17:43:00,74.0,62.0,-100.00,East,88,3.0,11.0,66,0.00,,,0.04,,2013-01-07 03:43:00,
2013-01-06 17:53:00,74.0,62.0,-100.00,East,88,3.0,11.0,66,0.00,,,0.04,,2013-01-07 03:53:00,
2013-01-06 18:02:00,74.0,62.0,-100.00,East,88,3.0,11.0,66,0.00,,,0.04,,2013-01-07 04:02:00,
2013-01-06 18:11:00,68.0,58.0,-100.00,ESE,123,1.0,11.0,70,0.00,,,0.04,,2013-01-07 04:11:00,
2013-01-06 18:33:00,68.0,58.0,-100.00,ESE,123,1.0,11.0,70,0.00,,,0.04,,2013-01-07 04:33:00,
2013-01-06 18:42:00,68.0,58.0,-100.00,ESE,123,1.0,11.0,70,0.00,,,0.04,,2013-01-07 04:42:00,
2013-01-06 18:52:00,68.0,58.0,-100.00,ESE,123,1.0,11.0,70,0.00,,,0.04,,2013-01-07 04:52:00,
2013-01-06 19:02:00,68.0,58.0,-100.00,ESE,123,1.0,11.0,70,0.00,,,0.04,,2013-01-07 05:02:00,
2013-01-06 19:11:00,66.0,61.0,-100.00,SSW,193,4.0,7.0,85,0.00,,,0.04,,2013-01-07 05:11:00,
2013-01-06 19:33:00,66.0,61.0,-100.00,SSW,193,4.0,7.0,85,0.00,,,0.04,,2013-01-07 05:33:00,
2013-01-06 19:43:00,66.0,61.0,-100.00,SSW,193,4.0,7.0,85,0.00,,,0.04,,2013-01-07 05:43:00,
2013-01-06 19:53:00,66.0,61.0,-100.00,SSW,193,4.0,7.0,85,0.00,,,0.04,,2013-01-07 05:53:00,
2013-01-06 20:02:00,66.0,61.0,-100.00,SSW,193,4.0,7.0,85,0.00,,,0.04,,2013-01-07 06:02:00,
2013-01-06 20:11:00,65.0,63.0,-100.00,South,173,0.0,7.0,92,0.00,,,0.04,,2013-01-07 06:11:00,
2013-01-06 20:42:00,65.0,63.0,-100.00,South,173,0.0,7.0,92,0.00,,,0.04,,2013-01-07 06:42:00,
2013-01-06 20:52:00,65.0,63.0,-100.00,South,173,0.0,7.0,92,0.00,,,0.04,,2013-01-07 06:52:00,
2013-01-06 21:02:00,65.0,63.0,-100.00,South,173,0.0,7.0,92,0.00,,,0.04,,2013-01-07 07:02:00,
2013-01-06 21:11:00,64.0,60.0,-100.00,South,184,0.0,4.0,87,0.00,,,0.04,,2013-01-07 07:11:00,
2013-01-06 21:33:00,64.0,60.0,-100.00,South,184,0.0,4.0,87,0.00,,,0.04,,2013-01-07 07:33:00,
2013-01-06 21:42:00,64.0,60.0,-100.00,South,184,0.0,4.0,87,0.00,,,0.04,,2013-01-07 07:42:00,
2013-01-06 21:52:00,64.0,60.0,-100.00,South,184,0.0,4.0,87,0.00,,,0.04,,2013-01-07 07:52:00,
2013-01-06 22:02:00,64.0,60.0,-100.00,South,184,0.0,4.0,87,0.00,,,0.04,,2013-01-07 08:02:00,
2013-01-06 22:11:00,64.0,61.0,-100.00,SSE,165,0.0,5.0,91,0.00,,,0.04,,2013-01-07 08:11:00,
2013-01-06 22:43:00,64.0,61.0,-100.00,SSE,165,0.0,5.0,91,0.00,,,0.04,,2013-01-07 08:43:00,
2013-01-06 22:53:00,64.0,61.0,-100.00,SSE,165,0.0,5.0,91,0.00,,,0.04,,2013-01-07 08:53:00,
2013-01-06 23:02:00,64.0,61.0,-100.00,SSE,165,0.0,5.0,91,0.00,,,0.04,,2013-01-07 09:02:00,
2013-01-06 23:11:00,65.0,62.0,-100.00,South,176,0.0,3.0,90,0.00,,,0.04,,2013-01-07 09:11:00,
2013-01-06 23:32:00,65.0,62.0,-100.00,South,176,0.0,3.0,90,0.00,,,0.04,,2013-01-07 09:32:00,
2013-01-06 23:42:00,65.0,62.0,-100.00,South,176,0.0,3.0,90,0.00,,,0.04,,2013-01-07 09:42:00,
2013-01-06 23:52:00,65.0,62.0,-100.00,South,176,0.0,3.0,90,0.00,,,0.04,,2013-01-07 09:52:00,